Deseret, Utah
Current Conditions -  °F | °C
As of 10:55 PM on Tuesday 21 Oct 2014 (Local Time) from KDTA Reporting Station
Clear Clear  
Wind Chill: 46°   Ceiling: Unl
Heat Index: 48°   Visibility: 10mi
Dew Point: 24°   Wind: 5mph
Humidity: 39%   Direction: 350°N
Pressure: 30.06"   Gusts: NA
Location:  39.3657°N, 112.477°W
Report Text: KDTA 220455Z AUTO 35004KT 10SM CLR 09/M04 A3006 RMK AO1 T00901045
Loading
Personal Weather Stations






























Interactive Weather Map
Tropical Storm Tracking
New forecast layout! Learn more

10-Day Weather Forecast

Advertisements
Track Severe Weather on mobile